createdAt,value
2019-01-19T00:01:28.657Z,34.98
2019-01-19T00:04:36.737Z,19.23
2019-01-19T00:07:43.808Z,18.40
2019-01-19T00:10:58.899Z,17.73
2019-01-19T00:14:11.320Z,12.95
2019-01-19T00:17:33.167Z,14.73
2019-01-19T00:20:38.883Z,28.53
2019-01-19T00:23:46.059Z,23.50
2019-01-19T00:26:39.025Z,23.05
2019-01-19T00:29:32.408Z,28.85
2019-01-19T00:32:51.578Z,41.50
2019-01-19T00:36:08.889Z,30.57
2019-01-19T00:39:02.468Z,30.90
2019-01-19T00:42:26.745Z,43.10
2019-01-19T00:45:42.015Z,39.13
2019-01-19T00:48:41.013Z,41.80
2019-01-19T00:51:48.419Z,34.30
2019-01-19T00:54:32.264Z,34.10
2019-01-19T00:57:47.526Z,20.67
2019-01-19T01:00:32.620Z,28.85
2019-01-19T01:03:19.513Z,28.90
2019-01-19T01:06:34.855Z,29.50
2019-01-19T01:09:40.873Z,29.90
2019-01-19T01:12:36.993Z,33.83
2019-01-19T01:15:36.912Z,27.83
2019-01-19T01:18:36.731Z,32.47
2019-01-19T01:21:30.865Z,42.47
2019-01-19T01:24:40.508Z,38.73
2019-01-19T01:27:22.119Z,41.58
2019-01-19T01:30:33.612Z,23.20
2019-01-19T01:33:45.641Z,25.65
2019-01-19T01:37:09.322Z,20.50
2019-01-19T01:40:33.852Z,27.43
2019-01-19T01:43:53.707Z,14.30
2019-01-19T01:47:17.157Z,16.50
2019-01-19T01:50:16.782Z,17.33
2019-01-19T01:53:44.045Z,15.70
2019-01-19T01:56:16.186Z,19.37
2019-01-19T01:59:18.209Z,18.70
2019-01-19T02:02:39.887Z,19.20
2019-01-19T02:05:43.507Z,17.47
2019-01-19T02:08:59.008Z,27.90
2019-01-19T02:11:55.246Z,21.50
2019-01-19T02:15:10.271Z,17.37
2019-01-19T02:18:08.385Z,13.93
2019-01-19T02:20:55.592Z,15.13
2019-01-19T02:23:48.138Z,20.48
2019-01-19T02:26:45.428Z,17.20
2019-01-19T02:29:56.839Z,14.60
2019-01-19T02:33:23.734Z,12.33
2019-01-19T02:36:35.549Z,10.93
2019-01-19T02:39:29.097Z,17.83
2019-01-19T02:42:43.379Z,12.10
2019-01-19T02:45:56.856Z,12.53
2019-01-19T02:49:24.406Z,11.20
2019-01-19T02:52:33.474Z,10.33
2019-01-19T02:56:00.963Z,9.93
2019-01-19T02:59:00.228Z,12.70
2019-01-19T03:01:44.087Z,12.20
2019-01-19T03:04:56.285Z,12.83
2019-01-19T03:08:10.225Z,16.20
2019-01-19T03:11:21.518Z,14.70
2019-01-19T03:14:16.014Z,11.60
2019-01-19T03:17:21.029Z,12.40
2019-01-19T03:20:42.386Z,15.27
2019-01-19T03:24:06.885Z,11.30
2019-01-19T03:27:03.299Z,14.17
2019-01-19T03:30:33.988Z,10.43
2019-01-19T03:33:42.082Z,13.00
2019-01-19T03:36:42.823Z,10.90
2019-01-19T03:39:52.140Z,11.80
2019-01-19T03:43:09.352Z,14.80
2019-01-19T03:46:21.350Z,11.83
2019-01-19T03:49:18.002Z,15.20
2019-01-19T03:52:24.677Z,12.63
2019-01-19T03:55:13.023Z,14.20
2019-01-19T03:58:24.638Z,10.78
2019-01-19T04:01:08.768Z,13.08
2019-01-19T04:04:06.732Z,16.40
2019-01-19T04:07:02.774Z,9.30
2019-01-19T04:09:59.812Z,13.95
2019-01-19T04:13:11.045Z,9.20
2019-01-19T04:16:33.252Z,9.93
2019-01-19T04:19:50.363Z,9.60
2019-01-19T04:22:32.974Z,8.73
2019-01-19T04:25:34.630Z,8.87
2019-01-19T04:28:07.761Z,9.73
2019-01-19T04:30:39.073Z,11.70
2019-01-19T04:33:10.956Z,10.53
2019-01-19T04:35:42.218Z,10.93
2019-01-19T04:38:13.489Z,8.43
2019-01-19T04:40:44.766Z,9.27
2019-01-19T04:43:16.116Z,8.83
2019-01-19T04:45:47.429Z,10.50
2019-01-19T04:48:20.357Z,9.80
2019-01-19T04:50:52.369Z,10.43
2019-01-19T04:53:23.656Z,13.55
2019-01-19T04:55:55.115Z,12.50
2019-01-19T04:58:26.589Z,10.60
2019-01-19T05:00:57.940Z,8.60
2019-01-19T05:03:29.276Z,8.90
2019-01-19T05:06:00.607Z,11.10
2019-01-19T05:08:31.858Z,8.17
2019-01-19T05:11:03.342Z,10.83
2019-01-19T05:13:34.631Z,8.10
2019-01-19T05:16:06.739Z,7.45
2019-01-19T05:18:37.991Z,7.50
2019-01-19T05:21:09.410Z,6.93
2019-01-19T05:23:40.840Z,6.45
2019-01-19T05:26:12.194Z,6.83
2019-01-19T05:28:43.490Z,7.10
2019-01-19T05:31:14.799Z,6.70
2019-01-19T05:33:46.077Z,7.83
2019-01-19T05:36:17.487Z,11.60
2019-01-19T05:38:48.760Z,8.70
2019-01-19T05:41:20.111Z,6.87
2019-01-19T05:43:51.518Z,7.87
2019-01-19T05:46:22.807Z,9.23
2019-01-19T05:48:54.163Z,9.20
2019-01-19T05:51:25.521Z,8.90
2019-01-19T05:53:56.760Z,11.33
2019-01-19T05:56:28.142Z,7.17
2019-01-19T05:58:59.513Z,6.33
2019-01-19T06:01:30.842Z,6.65
2019-01-19T06:04:02.114Z,6.83
2019-01-19T06:06:33.414Z,6.97
2019-01-19T06:09:07.756Z,7.67
2019-01-19T06:11:38.999Z,7.70
2019-01-19T06:14:10.246Z,10.67
2019-01-19T06:16:44.076Z,8.80
2019-01-19T06:19:15.744Z,6.47
2019-01-19T06:21:54.745Z,11.43
2019-01-19T06:24:26.011Z,7.67
2019-01-19T06:26:57.333Z,7.00
2019-01-19T06:29:28.573Z,7.97
2019-01-19T06:31:59.916Z,9.30
2019-01-19T06:34:31.240Z,7.20
2019-01-19T06:37:04.337Z,9.10
2019-01-19T06:39:35.853Z,16.67
2019-01-19T06:42:07.146Z,13.50
2019-01-19T06:44:38.567Z,8.63
2019-01-19T06:47:10.119Z,11.93
2019-01-19T06:49:41.470Z,8.33
2019-01-19T06:52:12.731Z,7.80
2019-01-19T06:54:44.069Z,8.00
2019-01-19T06:57:15.436Z,7.50
2019-01-19T06:59:46.761Z,7.95
2019-01-19T07:02:18.267Z,6.20
2019-01-19T07:04:49.705Z,7.57
2019-01-19T07:07:21.024Z,7.42
2019-01-19T07:09:52.371Z,10.60
2019-01-19T07:12:23.739Z,7.57
2019-01-19T07:14:55.137Z,8.80
2019-01-19T07:17:26.626Z,8.73
2019-01-19T07:19:57.896Z,12.40
2019-01-19T07:22:29.185Z,11.60
2019-01-19T07:25:00.877Z,12.53
2019-01-19T07:27:32.241Z,7.90
2019-01-19T07:30:04.982Z,9.07
2019-01-19T07:32:36.256Z,10.07
2019-01-19T07:35:08.661Z,13.90
2019-01-19T07:37:39.990Z,8.70
2019-01-19T07:40:13.299Z,10.10
2019-01-19T07:42:45.092Z,13.80
2019-01-19T07:45:16.981Z,9.07
2019-01-19T07:47:48.338Z,13.03
2019-01-19T07:50:19.698Z,7.50
2019-01-19T07:52:51.101Z,7.53
2019-01-19T07:55:22.352Z,10.53
2019-01-19T07:57:53.640Z,8.13
2019-01-19T08:00:27.603Z,8.10
2019-01-19T08:02:58.931Z,11.05
2019-01-19T08:05:31.847Z,6.90
2019-01-19T08:08:03.218Z,9.27
2019-01-19T08:10:34.638Z,10.25
2019-01-19T08:13:05.930Z,12.93
2019-01-19T08:15:37.168Z,9.00
2019-01-19T08:18:08.723Z,10.50
2019-01-19T08:20:40.007Z,11.63
2019-01-19T08:23:11.913Z,10.90
2019-01-19T08:25:43.326Z,7.07
2019-01-19T08:28:14.675Z,14.25
2019-01-19T08:30:46.024Z,6.63
2019-01-19T08:33:17.334Z,12.18
2019-01-19T08:35:48.739Z,6.80
2019-01-19T08:38:20.387Z,9.30
2019-01-19T08:40:51.761Z,6.07
2019-01-19T08:43:30.016Z,9.33
2019-01-19T08:46:02.317Z,9.03
2019-01-19T08:48:33.692Z,14.10
2019-01-19T08:51:05.244Z,18.23
2019-01-19T08:53:38.403Z,7.33
2019-01-19T08:56:09.650Z,8.77
2019-01-19T08:58:41.135Z,7.60
2019-01-19T09:01:12.409Z,7.20
2019-01-19T09:03:43.830Z,8.50
2019-01-19T09:06:15.127Z,9.93
2019-01-19T09:08:46.390Z,7.60
2019-01-19T09:11:17.725Z,9.15
2019-01-19T09:13:49.105Z,8.13
2019-01-19T09:16:22.292Z,15.47
2019-01-19T09:18:53.615Z,8.77
2019-01-19T09:21:24.941Z,11.88
2019-01-19T09:24:00.612Z,10.67
2019-01-19T09:26:31.851Z,8.67
2019-01-19T09:29:03.206Z,8.83
2019-01-19T09:31:34.564Z,18.27
2019-01-19T09:34:06.231Z,8.77
2019-01-19T09:36:37.494Z,8.30
2019-01-19T09:39:12.483Z,13.13
2019-01-19T09:41:43.756Z,12.95
2019-01-19T09:44:15.064Z,13.30
2019-01-19T09:46:46.624Z,8.83
2019-01-19T09:49:18.059Z,7.70
2019-01-19T09:51:49.360Z,12.60
2019-01-19T09:54:22.296Z,8.15
2019-01-19T09:56:53.560Z,8.00
2019-01-19T09:59:24.909Z,11.07
2019-01-19T10:01:56.298Z,7.62
2019-01-19T10:04:29.242Z,13.03
2019-01-19T10:07:00.504Z,11.40
2019-01-19T10:09:31.811Z,7.30
2019-01-19T10:12:03.258Z,8.37
2019-01-19T10:14:34.613Z,8.03
2019-01-19T10:17:06.062Z,7.90
2019-01-19T10:19:37.403Z,11.73
2019-01-19T10:22:08.708Z,8.93
2019-01-19T10:24:39.974Z,7.73
2019-01-19T10:27:11.289Z,17.93
2019-01-19T10:29:42.696Z,9.20
2019-01-19T10:32:13.955Z,8.70
2019-01-19T10:34:45.235Z,8.10
2019-01-19T10:37:17.498Z,11.93
2019-01-19T10:39:48.794Z,13.13
2019-01-19T10:42:20.298Z,12.03
2019-01-19T10:44:51.692Z,8.63
2019-01-19T10:47:22.932Z,9.53
2019-01-19T10:49:54.262Z,7.37
2019-01-19T10:52:25.685Z,10.27
2019-01-19T10:54:56.959Z,7.30
2019-01-19T10:57:28.352Z,8.03
2019-01-19T10:59:59.658Z,7.17
2019-01-19T11:02:30.917Z,7.35
2019-01-19T11:05:02.452Z,8.40
2019-01-19T11:07:33.876Z,10.50
2019-01-19T11:10:06.417Z,13.10
2019-01-19T11:12:39.586Z,10.80
2019-01-19T11:15:13.871Z,12.60
2019-01-19T11:17:46.650Z,8.45
2019-01-19T11:20:19.990Z,15.63
2019-01-19T11:22:51.452Z,7.80
2019-01-19T11:25:25.630Z,8.47
2019-01-19T11:27:58.394Z,6.70
2019-01-19T11:30:31.633Z,8.53
2019-01-19T11:33:05.809Z,8.20
2019-01-19T11:35:37.519Z,11.33
2019-01-19T11:38:12.008Z,15.27
2019-01-19T11:40:43.479Z,7.23
2019-01-19T11:43:19.180Z,10.45
2019-01-19T11:45:51.567Z,6.25
2019-01-19T11:48:25.478Z,7.87
2019-01-19T11:50:59.365Z,10.83
2019-01-19T11:53:33.506Z,7.42
2019-01-19T11:56:12.174Z,7.77
2019-01-19T11:58:41.502Z,14.33
2019-01-19T12:01:15.553Z,9.43
2019-01-19T12:03:46.806Z,8.30
2019-01-19T12:06:20.411Z,10.90
2019-01-19T12:08:51.674Z,7.17
2019-01-19T12:11:25.892Z,7.70
2019-01-19T12:14:00.532Z,16.30
2019-01-19T12:16:32.827Z,7.27
2019-01-19T12:19:05.654Z,6.47
2019-01-19T12:21:37.816Z,7.90
2019-01-19T12:24:13.334Z,6.97
2019-01-19T12:26:45.815Z,7.23
2019-01-19T12:29:21.422Z,12.20
2019-01-19T12:31:53.719Z,9.10
2019-01-19T12:34:29.388Z,8.33
2019-01-19T12:37:02.281Z,9.00
2019-01-19T12:39:33.984Z,7.50
2019-01-19T12:42:07.727Z,12.53
2019-01-19T12:44:41.809Z,7.00
2019-01-19T12:47:14.728Z,7.80
2019-01-19T12:49:46.946Z,8.10
2019-01-19T12:52:22.487Z,7.10
2019-01-19T12:54:53.880Z,7.40
2019-01-19T12:57:25.521Z,9.28
2019-01-19T12:59:59.288Z,7.42
2019-01-19T13:02:31.760Z,8.90
2019-01-19T13:05:09.360Z,8.10
2019-01-19T13:07:40.971Z,9.17
2019-01-19T13:10:23.077Z,20.90
2019-01-19T13:13:14.057Z,14.03
2019-01-19T13:16:17.152Z,10.35
2019-01-19T13:19:12.497Z,8.78
2019-01-19T13:22:24.780Z,8.03
2019-01-19T13:25:18.696Z,8.67
2019-01-19T13:28:37.813Z,19.23
2019-01-19T13:31:46.731Z,9.53
2019-01-19T13:34:48.549Z,15.38
2019-01-19T13:37:49.390Z,11.72
2019-01-19T13:41:06.969Z,11.10
2019-01-19T13:44:33.260Z,10.20
2019-01-19T13:47:40.339Z,9.17
2019-01-19T13:50:57.409Z,10.80
2019-01-19T13:54:11.321Z,14.80
2019-01-19T13:57:14.504Z,17.80
2019-01-19T14:00:33.491Z,28.17
2019-01-19T14:03:48.343Z,15.58
2019-01-19T14:07:09.791Z,15.30
2019-01-19T14:10:24.841Z,12.53
2019-01-19T14:13:30.694Z,20.63
2019-01-19T14:16:18.748Z,22.80
2019-01-19T14:19:47.470Z,12.27
2019-01-19T14:23:08.112Z,17.13
2019-01-19T14:26:23.813Z,16.73
2019-01-19T14:29:31.105Z,31.40
2019-01-19T14:32:46.591Z,17.07
2019-01-19T14:36:06.276Z,12.97
2019-01-19T14:39:25.802Z,17.60
2019-01-19T14:42:56.959Z,14.40
2019-01-19T14:46:00.964Z,15.90
2019-01-19T14:49:08.639Z,15.33
2019-01-19T14:52:35.999Z,21.87
2019-01-19T14:55:45.137Z,22.63
2019-01-19T14:58:52.544Z,19.50
2019-01-19T15:02:06.899Z,24.67
2019-01-19T15:05:04.158Z,17.83
2019-01-19T15:08:19.913Z,18.30
2019-01-19T15:11:32.640Z,20.60
2019-01-19T15:14:33.873Z,17.97
2019-01-19T15:17:35.836Z,18.70
2019-01-19T15:20:37.605Z,20.83
2019-01-19T15:23:37.874Z,21.90
2019-01-19T15:26:51.717Z,18.40
2019-01-19T15:29:54.664Z,24.55
2019-01-19T15:32:52.123Z,28.73
2019-01-19T15:35:55.820Z,22.35
2019-01-19T15:38:40.945Z,18.07
2019-01-19T15:41:53.341Z,18.07
2019-01-19T15:45:01.967Z,24.52
2019-01-19T15:48:12.833Z,19.40
2019-01-19T15:51:35.791Z,27.60
2019-01-19T15:54:37.779Z,21.73
2019-01-19T15:58:05.264Z,20.10
2019-01-19T16:01:14.348Z,22.73
2019-01-19T16:04:32.557Z,26.80
2019-01-19T16:07:30.137Z,29.70
2019-01-19T16:10:29.271Z,22.33
2019-01-19T16:13:35.839Z,22.80
2019-01-19T16:16:53.489Z,26.93
2019-01-19T16:19:55.390Z,25.50
2019-01-19T16:22:48.506Z,25.33
2019-01-19T16:25:55.161Z,25.73
2019-01-19T16:29:09.952Z,30.73
2019-01-19T16:32:08.085Z,31.27
2019-01-19T16:35:17.053Z,25.10
2019-01-19T16:38:27.407Z,22.93
2019-01-19T16:41:45.867Z,19.43
2019-01-19T16:45:09.922Z,26.45
2019-01-19T16:48:22.051Z,22.73
2019-01-19T16:51:32.705Z,23.07
2019-01-19T16:54:47.796Z,24.50
2019-01-19T16:57:49.618Z,26.63
2019-01-19T17:01:04.426Z,21.10
2019-01-19T17:04:30.232Z,24.70
2019-01-19T17:07:11.066Z,22.97
2019-01-19T17:10:05.116Z,20.30
2019-01-19T17:13:18.281Z,23.83
2019-01-19T17:16:18.664Z,22.42
2019-01-19T17:19:15.196Z,27.63
2019-01-19T17:22:26.522Z,29.73
2019-01-19T17:25:41.365Z,20.53
2019-01-19T17:28:46.674Z,28.80
2019-01-19T17:31:46.295Z,28.67
2019-01-19T17:34:49.491Z,29.10
2019-01-19T17:37:38.356Z,24.90
2019-01-19T17:40:43.477Z,35.37
2019-01-19T17:43:36.886Z,28.55
2019-01-19T17:47:01.976Z,29.30
2019-01-19T17:49:46.965Z,33.50
2019-01-19T17:52:47.573Z,29.30
2019-01-19T17:55:57.345Z,26.53
2019-01-19T17:58:56.038Z,25.50
2019-01-19T18:02:30.009Z,29.85
2019-01-19T18:05:56.889Z,26.77
2019-01-19T18:08:58.346Z,28.67
2019-01-19T18:11:50.194Z,31.82
2019-01-19T18:14:30.630Z,30.00
2019-01-19T18:17:52.914Z,30.85
2019-01-19T18:21:15.192Z,26.75
2019-01-19T18:24:26.714Z,30.93
2019-01-19T18:27:48.081Z,32.77
2019-01-19T18:30:50.061Z,34.55
2019-01-19T18:34:10.731Z,41.33
2019-01-19T18:37:09.906Z,56.60
2019-01-19T18:40:17.331Z,52.48
2019-01-19T18:42:58.801Z,61.33
2019-01-19T18:46:08.125Z,59.88
2019-01-19T18:49:25.735Z,64.10
2019-01-19T18:52:40.596Z,60.77
2019-01-19T18:55:34.783Z,52.73
2019-01-19T18:58:45.671Z,46.90
2019-01-19T19:01:49.925Z,49.18
2019-01-19T19:04:59.704Z,44.98
2019-01-19T19:08:16.990Z,45.17
2019-01-19T19:11:33.241Z,43.77
2019-01-19T19:14:33.115Z,36.90
2019-01-19T19:17:36.336Z,42.50
2019-01-19T19:20:19.638Z,41.97
2019-01-19T19:23:24.292Z,37.77
2019-01-19T19:26:57.978Z,37.40
2019-01-19T19:30:11.535Z,39.35
2019-01-19T19:33:19.449Z,36.63
2019-01-19T19:36:34.889Z,44.97
2019-01-19T19:39:33.729Z,44.48
2019-01-19T19:42:45.526Z,35.37
2019-01-19T19:45:43.395Z,34.50
2019-01-19T19:48:54.931Z,34.67
2019-01-19T19:52:00.375Z,36.67
2019-01-19T19:54:34.945Z,34.73
2019-01-19T19:57:07.069Z,40.67
2019-01-19T19:59:38.834Z,37.67
2019-01-19T20:02:12.921Z,38.20
2019-01-19T20:04:44.300Z,36.68
2019-01-19T20:07:17.793Z,29.97
2019-01-19T20:09:51.890Z,35.33
2019-01-19T20:12:25.895Z,35.03
2019-01-19T20:15:00.246Z,33.03
2019-01-19T20:17:33.876Z,39.97
2019-01-19T20:20:06.690Z,37.83
2019-01-19T20:22:38.687Z,35.63
2019-01-19T20:25:10.946Z,39.10
2019-01-19T20:27:43.816Z,39.33
2019-01-19T20:30:18.260Z,40.50
2019-01-19T20:32:50.720Z,35.73
2019-01-19T20:35:22.794Z,40.12
2019-01-19T20:37:56.155Z,35.40
2019-01-19T20:40:27.513Z,34.30
2019-01-19T20:42:58.788Z,40.23
2019-01-19T20:45:30.139Z,39.40
2019-01-19T20:48:03.830Z,38.53
2019-01-19T20:50:37.082Z,45.80
2019-01-19T20:53:11.104Z,40.53
2019-01-19T20:55:45.381Z,32.70
2019-01-19T20:58:19.011Z,36.60
2019-01-19T21:00:53.237Z,30.60
2019-01-19T21:03:27.054Z,40.90
2019-01-19T21:06:00.155Z,37.77
2019-01-19T21:08:35.795Z,36.35
2019-01-19T21:11:08.659Z,36.00
2019-01-19T21:13:39.934Z,39.63
2019-01-19T21:16:13.963Z,37.50
2019-01-19T21:18:47.038Z,39.27
2019-01-19T21:21:19.125Z,33.70
2019-01-19T21:23:52.094Z,36.80
2019-01-19T21:26:25.999Z,37.87
2019-01-19T21:28:58.162Z,36.83
2019-01-19T21:31:31.155Z,35.00
2019-01-19T21:34:03.278Z,37.70
2019-01-19T21:36:37.849Z,46.85
2019-01-19T21:39:10.257Z,38.60
2019-01-19T21:41:45.885Z,42.17
2019-01-19T21:44:18.114Z,38.30
2019-01-19T21:46:53.757Z,39.03
2019-01-19T21:49:26.148Z,44.67
2019-01-19T21:52:00.123Z,39.13
2019-01-19T21:54:33.173Z,43.73
2019-01-19T21:57:06.291Z,39.63
2019-01-19T21:59:39.140Z,44.67
2019-01-19T22:02:12.302Z,37.85
2019-01-19T22:04:44.153Z,36.13
2019-01-19T22:07:15.412Z,40.67
2019-01-19T22:09:49.219Z,34.90
2019-01-19T22:12:23.344Z,38.00
2019-01-19T22:14:56.313Z,39.57
2019-01-19T22:17:30.210Z,35.20
2019-01-19T22:20:03.315Z,36.70
2019-01-19T22:22:35.304Z,35.37
2019-01-19T22:25:06.946Z,34.13
2019-01-19T22:27:43.246Z,34.53
2019-01-19T22:30:16.697Z,48.20
2019-01-19T22:32:49.451Z,41.37
2019-01-19T22:35:26.109Z,48.87
2019-01-19T22:37:59.645Z,45.77
2019-01-19T22:40:34.360Z,50.60
2019-01-19T22:43:09.115Z,55.73
2019-01-19T22:45:41.456Z,57.03
2019-01-19T22:48:15.483Z,49.85
2019-01-19T22:50:46.834Z,44.20
2019-01-19T22:53:20.444Z,40.57
2019-01-19T22:55:54.345Z,38.80
2019-01-19T22:58:28.505Z,45.70
2019-01-19T23:02:02.526Z,40.30
2019-01-19T23:04:37.980Z,41.17
2019-01-19T23:07:12.578Z,43.13
2019-01-19T23:09:44.509Z,41.40
2019-01-19T23:12:16.583Z,38.17
2019-01-19T23:14:49.948Z,45.30
2019-01-19T23:17:23.567Z,46.37
2019-01-19T23:19:57.578Z,44.23
2019-01-19T23:22:29.005Z,42.40
2019-01-19T23:25:00.869Z,36.63
2019-01-19T23:27:33.585Z,38.17
2019-01-19T23:30:08.029Z,48.73
2019-01-19T23:32:41.649Z,40.17
2019-01-19T23:35:15.540Z,41.30
2019-01-19T23:37:50.505Z,37.90
2019-01-19T23:40:23.718Z,49.03
2019-01-19T23:42:57.657Z,40.70
2019-01-19T23:45:33.177Z,41.13
2019-01-19T23:48:06.588Z,40.73
2019-01-19T23:50:39.502Z,47.83
2019-01-19T23:53:10.759Z,38.03
2019-01-19T23:55:44.764Z,43.23
2019-01-19T23:58:18.862Z,43.97
